Washington Island, WI (54246)

6:49 AM CST on December 10, 2016 (GMT -0600)
South Shore Drive | | Change Station
Active Advisory: Winter Storm Watch

Elev 604 ft 45.34 °N, 86.89 °W | Updated 3 minutes ago

Mostly Cloudy
Mostly Cloudy
15.8 °F
Feels Like 9 °F
N
4.0
Wind Variable Wind from South
Gusts 4.0 mph

Today
High -- | Low -- °F
--% Chance of Precip.
Yesterday
High -- | Low -- °F
Precip. -- in
Pressure 30.48 in
Visibility 10.0 miles
Clouds Clear
Windchill 9 °F
Dew Point 8 °F
Humidity 70%
Rainfall 0.00 in
Snow Depth Not available.
7:16 AM 4:04 PM
Waxing Gibbous, 83% visible
METAR KESC 101156Z AUTO 27009KT 10SM CLR M12/M17 A3039 RMK AO2 SLP322 T11221167 11100 21122 50003 FZRANO
Pressure 30.48 in
Visibility 10.0 miles
Clouds Clear
Windchill 9 °F
Dew Point 8 °F
Humidity 70%
Rainfall 0.00 in
Snow Depth Not available.
7:16 AM 4:04 PM
Waxing Gibbous, 83% visible
METAR KESC 101156Z AUTO 27009KT 10SM CLR M12/M17 A3039 RMK AO2 SLP322 T11221167 11100 21122 50003 FZRANO

10-Day Weather Forecast

Almanac

Astronomy

Dec. 10, 2016 Rise Set
Actual Time
Civil Twilight
Nautical Twilight
Astronomical Twilight
Moon
Length of Visible Light
Length of Day
Tomorrow will be .
, % of the Moon is Illuminated

Today's Extremes

State Highs State Lows

Community

WunderPhotos

Upload Photos

1,956,540 photos uploaded!

WunderBlog® & News

Nearby

Air Quality

  Air Quality AQ Index Pollutant
Not available.

Snow Depth

Station Depth Elevation

Earthquake Activity

City Distance Mag. Time & Date
Minimum magnitude displayed is 2.5.

Coastal Water Temperatures

Place Temperature

Stations

Nearby Weather Stations

Station Location Temp. Windchill Dew Point Humidity Wind Precip. Elev Updated Type
                   

Watches & Warnings

Winter Storm Watch
Issued: 3:56 AM CST Dec. 10, 2016 – National Weather Service

... Winter Storm Watch remains in effect from late tonight through
late Sunday night...

* timing... late tonight through Sunday night. The heaviest snow
should fall Sunday afternoon and evening.

* Snow accumulations... around 6 inches... and possibly an
additional inch or two at some locations.

* Main impact... hazardous travel will develop late tonight and
continue through Sunday night.

Precautionary/preparedness actions...

A Winter Storm Watch means there is a potential for significant
snow accumulations that may impact travel. Continue to monitor
the latest forecasts.




Skowronski